createdAt,value
2023-04-07T00:00:59.068Z,19.300
2023-04-07T00:01:59.385Z,18.500
2023-04-07T00:03:00.589Z,18.200
2023-04-07T00:04:00.377Z,20.500
2023-04-07T00:04:58.852Z,18.800
2023-04-07T00:05:59.144Z,18.200
2023-04-07T00:06:58.300Z,18.900
2023-04-07T00:08:03.460Z,18.100
2023-04-07T00:09:58.692Z,17.400
2023-04-07T00:10:58.899Z,19.300
2023-04-07T00:11:59.079Z,18.500
2023-04-07T00:12:59.229Z,19.600
2023-04-07T00:13:58.655Z,18.200
2023-04-07T00:14:59.115Z,17.800
2023-04-07T00:15:58.509Z,18.100
2023-04-07T00:16:58.946Z,19.200
2023-04-07T00:17:59.492Z,18.100
2023-04-07T00:18:58.743Z,18.700
2023-04-07T00:19:59.299Z,20.000
2023-04-07T00:20:58.443Z,20.000
2023-04-07T00:21:58.632Z,20.900
2023-04-07T00:22:58.987Z,19.300
2023-04-07T00:23:59.148Z,19.200
2023-04-07T00:25:04.181Z,19.700
2023-04-07T00:25:59.313Z,20.100
2023-04-07T00:26:58.433Z,19.500
2023-04-07T00:27:58.554Z,19.800
2023-04-07T00:28:58.738Z,19.100
2023-04-07T00:29:58.911Z,19.700
2023-04-07T00:30:59.308Z,20.900
2023-04-07T00:31:58.632Z,19.900
2023-04-07T00:33:01.272Z,20.600
2023-04-07T00:35:59.173Z,19.100
2023-04-07T00:36:58.361Z,20.300
2023-04-07T00:37:58.512Z,20.600
2023-04-07T00:38:58.695Z,20.200
2023-04-07T00:39:59.085Z,21.000
2023-04-07T00:40:59.234Z,19.000
2023-04-07T00:41:58.472Z,19.700
2023-04-07T00:42:58.592Z,19.600
2023-04-07T00:43:58.803Z,20.600
2023-04-07T00:44:59.152Z,20.500
2023-04-07T00:45:58.321Z,19.900
2023-04-07T00:46:58.757Z,20.700
2023-04-07T00:47:59.183Z,19.800
2023-04-07T00:48:58.372Z,20.800
2023-04-07T00:49:58.560Z,19.300
2023-04-07T00:50:58.751Z,21.000
2023-04-07T00:51:59.146Z,19.500
2023-04-07T00:52:58.280Z,20.800
2023-04-07T00:53:58.998Z,20.800
2023-04-07T00:54:59.353Z,20.800
2023-04-07T00:55:58.474Z,20.000
2023-04-07T00:57:00.935Z,20.500
2023-04-07T00:58:59.283Z,19.900
2023-04-07T00:59:58.377Z,19.600
2023-04-07T01:00:58.687Z,20.900
2023-04-07T01:01:59.333Z,20.400
2023-04-07T01:02:59.565Z,18.600
2023-04-07T01:04:00.751Z,19.200
2023-04-07T01:05:58.730Z,20.000
2023-04-07T01:06:58.985Z,20.000
2023-04-07T01:07:59.319Z,20.100
2023-04-07T01:08:58.472Z,19.800
2023-04-07T01:09:58.663Z,20.100
2023-04-07T01:10:58.883Z,20.000
2023-04-07T01:11:59.100Z,18.500
2023-04-07T01:12:58.272Z,20.200
2023-04-07T01:13:58.674Z,19.800
2023-04-07T01:14:58.936Z,19.000
2023-04-07T01:15:59.309Z,20.100
2023-04-07T01:16:58.792Z,19.200
2023-04-07T01:17:59.196Z,18.600
2023-04-07T01:18:58.501Z,19.400
2023-04-07T01:19:58.977Z,19.800
2023-04-07T01:20:59.340Z,19.200
2023-04-07T01:21:58.669Z,19.900
2023-04-07T01:22:58.935Z,20.200
2023-04-07T01:23:59.263Z,20.700
2023-04-07T01:24:58.454Z,20.300
2023-04-07T01:25:58.647Z,18.900
2023-04-07T01:26:58.851Z,19.100
2023-04-07T01:27:59.098Z,18.600
2023-04-07T01:28:58.335Z,18.700
2023-04-07T01:29:58.517Z,19.300
2023-04-07T01:30:58.700Z,20.400
2023-04-07T01:31:59.292Z,20.300
2023-04-07T01:32:58.853Z,18.100
2023-04-07T01:33:59.271Z,19.300
2023-04-07T01:34:58.436Z,18.400
2023-04-07T01:35:58.670Z,19.600
2023-04-07T01:36:59.076Z,20.100
2023-04-07T01:37:59.307Z,20.400
2023-04-07T01:38:58.472Z,19.200
2023-04-07T01:39:58.624Z,19.200
2023-04-07T01:40:58.965Z,20.200
2023-04-07T01:41:59.142Z,19.900
2023-04-07T01:42:58.321Z,20.300
2023-04-07T01:44:00.746Z,18.900
2023-04-07T01:45:59.247Z,20.600
2023-04-07T01:46:58.602Z,20.000
2023-04-07T01:47:59.340Z,20.900
2023-04-07T01:48:58.480Z,21.200
2023-04-07T01:49:58.692Z,20.500
2023-04-07T01:50:58.970Z,20.800
2023-04-07T01:51:59.223Z,19.200
2023-04-07T01:52:58.358Z,20.600
2023-04-07T01:53:58.540Z,19.600
2023-04-07T01:54:58.723Z,19.500
2023-04-07T01:55:58.992Z,20.500
2023-04-07T01:56:59.743Z,19.800
2023-04-07T01:57:58.915Z,20.300
2023-04-07T01:58:59.091Z,20.300
2023-04-07T01:59:59.211Z,20.100
2023-04-07T02:00:58.397Z,19.500
2023-04-07T02:01:59.488Z,19.500
2023-04-07T02:02:59.819Z,18.900
2023-04-07T02:03:59.425Z,20.400
2023-04-07T02:06:59.261Z,19.900
2023-04-07T02:07:58.436Z,20.300
2023-04-07T02:08:58.611Z,20.200
2023-04-07T02:09:58.852Z,19.500
2023-04-07T02:10:59.121Z,20.000
2023-04-07T02:11:58.343Z,20.800
2023-04-07T02:12:58.493Z,19.000
2023-04-07T02:13:58.685Z,18.800
2023-04-07T02:14:58.964Z,20.700
2023-04-07T02:15:59.242Z,21.300
2023-04-07T02:16:58.585Z,20.800
2023-04-07T02:17:59.043Z,21.300
2023-04-07T02:18:58.314Z,21.100
2023-04-07T02:19:58.503Z,20.500
2023-04-07T02:20:58.874Z,21.000
2023-04-07T02:21:59.111Z,21.200
2023-04-07T02:22:59.309Z,20.300
2023-04-07T02:23:58.651Z,20.500
2023-04-07T02:24:58.810Z,20.500
2023-04-07T02:25:59.083Z,20.400
2023-04-07T02:26:59.356Z,20.800
2023-04-07T02:27:58.556Z,20.000
2023-04-07T02:28:58.766Z,22.300
2023-04-07T02:29:59.107Z,21.700
2023-04-07T02:30:58.295Z,21.500
2023-04-07T02:31:58.681Z,21.900
2023-04-07T02:32:59.323Z,20.100
2023-04-07T02:33:58.607Z,21.100
2023-04-07T02:34:58.772Z,19.800
2023-04-07T02:35:58.971Z,21.900
2023-04-07T02:36:59.514Z,21.900
2023-04-07T02:37:58.817Z,20.200
2023-04-07T02:38:58.968Z,19.300
2023-04-07T02:39:59.119Z,19.300
2023-04-07T02:40:59.232Z,19.600
2023-04-07T02:41:58.443Z,19.800
2023-04-07T02:42:58.680Z,19.500
2023-04-07T02:43:59.304Z,19.900
2023-04-07T02:44:58.565Z,19.800
2023-04-07T02:45:58.971Z,19.800
2023-04-07T02:46:59.372Z,19.400
2023-04-07T02:47:58.728Z,19.100
2023-04-07T02:48:59.127Z,20.200
2023-04-07T02:49:58.455Z,20.000
2023-04-07T02:50:58.615Z,18.800
2023-04-07T02:51:59.027Z,20.200
2023-04-07T02:52:59.256Z,20.500
2023-04-07T02:53:58.783Z,21.600
2023-04-07T02:54:59.113Z,21.900
2023-04-07T02:55:58.407Z,22.300
2023-04-07T02:56:58.955Z,22.900
2023-04-07T02:57:59.259Z,22.000
2023-04-07T02:58:58.376Z,22.200
2023-04-07T02:59:58.599Z,22.900
2023-04-07T03:00:58.922Z,23.200
2023-04-07T03:02:00.116Z,23.700
2023-04-07T03:02:58.757Z,23.000
2023-04-07T03:04:00.031Z,23.400
2023-04-07T03:04:58.456Z,23.800
2023-04-07T03:05:58.756Z,22.100
2023-04-07T03:06:59.092Z,24.600
2023-04-07T03:07:59.350Z,23.500
2023-04-07T03:08:58.577Z,24.100
2023-04-07T03:09:58.852Z,24.100
2023-04-07T03:10:59.060Z,22.200
2023-04-07T03:11:59.284Z,22.100
2023-04-07T03:12:58.395Z,23.500
2023-04-07T03:13:58.607Z,23.800
2023-04-07T03:14:58.742Z,24.700
2023-04-07T03:15:58.924Z,24.700
2023-04-07T03:16:59.365Z,23.400
2023-04-07T03:17:58.732Z,22.700
2023-04-07T03:18:59.075Z,22.900
2023-04-07T03:19:59.235Z,23.100
2023-04-07T03:20:58.416Z,23.500
2023-04-07T03:21:58.624Z,25.500
2023-04-07T03:22:59.110Z,22.900
2023-04-07T03:23:59.196Z,24.900
2023-04-07T03:24:58.356Z,23.400
2023-04-07T03:25:58.626Z,23.600
2023-04-07T03:26:58.729Z,23.200
2023-04-07T03:27:58.923Z,23.500
2023-04-07T03:28:59.085Z,23.100
2023-04-07T03:29:59.259Z,23.100
2023-04-07T03:30:58.606Z,23.300
2023-04-07T03:31:58.957Z,24.000
2023-04-07T03:32:59.439Z,25.400
2023-04-07T03:33:58.798Z,24.500
2023-04-07T03:34:58.949Z,24.300
2023-04-07T03:35:59.391Z,25.200
2023-04-07T03:36:58.621Z,23.500
2023-04-07T03:37:58.885Z,24.100
2023-04-07T03:38:59.083Z,22.100
2023-04-07T03:39:59.208Z,23.000
2023-04-07T03:40:58.430Z,23.500
2023-04-07T03:41:58.599Z,23.400
2023-04-07T03:42:58.865Z,23.600
2023-04-07T03:43:59.016Z,23.100
2023-04-07T03:44:59.162Z,22.200
2023-04-07T03:45:58.462Z,23.400
2023-04-07T03:46:59.018Z,23.600
2023-04-07T03:47:59.373Z,23.200
2023-04-07T03:48:58.643Z,20.700
2023-04-07T03:49:58.779Z,22.800
2023-04-07T03:50:59.008Z,22.100
2023-04-07T03:51:59.147Z,22.900
2023-04-07T03:52:58.320Z,22.700
2023-04-07T03:53:58.467Z,21.100
2023-04-07T03:54:58.623Z,22.900
2023-04-07T03:55:58.876Z,22.600
2023-04-07T03:56:59.063Z,22.000
2023-04-07T03:57:59.310Z,22.900
2023-04-07T03:58:58.369Z,22.800
2023-04-07T03:59:58.467Z,22.400
2023-04-07T04:00:58.612Z,23.500
2023-04-07T04:01:58.894Z,22.700
2023-04-07T04:02:59.649Z,23.400
2023-04-07T04:04:00.587Z,23.100
2023-04-07T04:04:59.407Z,21.900
2023-04-07T04:09:58.372Z,20.500
2023-04-07T04:10:58.466Z,19.900
2023-04-07T04:11:58.609Z,19.800
2023-04-07T04:12:58.803Z,20.000
2023-04-07T04:13:59.009Z,19.200
2023-04-07T04:14:59.208Z,19.900
2023-04-07T04:15:58.422Z,20.800
2023-04-07T04:16:58.767Z,19.200
2023-04-07T04:17:59.102Z,19.700
2023-04-07T04:18:58.419Z,20.900
2023-04-07T04:19:58.745Z,18.800
2023-04-07T04:20:58.932Z,21.300
2023-04-07T04:22:01.019Z,19.600
2023-04-07T04:24:58.479Z,20.700
2023-04-07T04:25:58.871Z,20.200
2023-04-07T04:26:59.660Z,20.100
2023-04-07T04:27:58.834Z,19.700
2023-04-07T04:28:59.008Z,19.200
2023-04-07T04:29:59.174Z,18.800
2023-04-07T04:30:58.422Z,19.900
2023-04-07T04:31:58.724Z,19.500
2023-04-07T04:32:59.072Z,19.600
2023-04-07T04:33:58.337Z,19.100
2023-04-07T04:34:58.651Z,19.100
2023-04-07T04:35:58.813Z,18.700
2023-04-07T04:36:59.192Z,19.000
2023-04-07T04:37:58.419Z,19.600
2023-04-07T04:38:58.645Z,18.700
2023-04-07T04:39:58.813Z,20.300
2023-04-07T04:40:59.010Z,18.400
2023-04-07T04:41:59.199Z,18.900
2023-04-07T04:42:58.791Z,18.100
2023-04-07T04:43:59.609Z,19.600
2023-04-07T04:44:58.711Z,19.700
2023-04-07T04:45:59.174Z,19.600
2023-04-07T04:46:58.557Z,19.800
2023-04-07T04:47:59.221Z,18.600
2023-04-07T04:48:58.436Z,18.400
2023-04-07T04:49:58.603Z,19.000
2023-04-07T04:50:58.862Z,18.700
2023-04-07T04:51:59.081Z,18.800
2023-04-07T04:52:59.327Z,19.300
2023-04-07T04:53:58.487Z,18.500
2023-04-07T04:54:58.691Z,18.700
2023-04-07T04:55:58.924Z,19.200
2023-04-07T04:56:59.141Z,19.300
2023-04-07T04:57:58.318Z,18.200
2023-04-07T04:58:59.469Z,17.900
2023-04-07T05:00:58.953Z,19.300
2023-04-07T05:03:00.050Z,19.100
2023-04-07T05:03:59.881Z,19.100
2023-04-07T05:05:58.734Z,18.400
2023-04-07T05:06:58.832Z,18.700
2023-04-07T05:07:58.952Z,19.000
2023-04-07T05:08:59.199Z,18.700
2023-04-07T05:09:58.436Z,18.700
2023-04-07T05:10:58.635Z,19.900
2023-04-07T05:11:58.823Z,18.400
2023-04-07T05:12:59.175Z,19.200
2023-04-07T05:13:58.339Z,18.000
2023-04-07T05:14:58.523Z,19.300
2023-04-07T05:15:58.794Z,17.600
2023-04-07T05:16:59.266Z,17.800
2023-04-07T05:17:58.836Z,19.500
2023-04-07T05:18:59.294Z,17.400
2023-04-07T05:19:58.448Z,18.400
2023-04-07T05:20:58.640Z,18.700
2023-04-07T05:21:58.794Z,19.000
2023-04-07T05:22:58.998Z,18.900
2023-04-07T05:23:59.140Z,18.700
2023-04-07T05:24:58.402Z,17.600
2023-04-07T05:25:58.596Z,18.600
2023-04-07T05:26:58.825Z,18.700
2023-04-07T05:27:58.997Z,19.000
2023-04-07T05:28:59.245Z,18.100
2023-04-07T05:29:58.476Z,17.500
2023-04-07T05:30:58.616Z,17.900
2023-04-07T05:31:59.098Z,18.300
2023-04-07T05:32:58.715Z,18.800
2023-04-07T05:33:59.107Z,17.600
2023-04-07T05:34:59.262Z,19.000
2023-04-07T05:35:58.723Z,17.500
2023-04-07T05:36:59.150Z,18.200
2023-04-07T05:37:58.266Z,18.100
2023-04-07T05:38:58.455Z,16.000
2023-04-07T05:39:58.759Z,18.000
2023-04-07T05:40:59.079Z,17.000
2023-04-07T05:41:59.286Z,18.300
2023-04-07T05:42:58.463Z,18.000
2023-04-07T05:43:58.611Z,17.800
2023-04-07T05:44:58.899Z,17.500
2023-04-07T05:45:59.522Z,17.400
2023-04-07T05:46:58.654Z,17.600
2023-04-07T05:47:59.000Z,17.600
2023-04-07T05:49:04.703Z,17.300
2023-04-07T05:49:58.684Z,17.700
2023-04-07T05:50:58.936Z,17.100
2023-04-07T05:51:59.214Z,16.700
2023-04-07T05:52:58.346Z,18.700
2023-04-07T05:53:58.637Z,18.600
2023-04-07T05:54:58.858Z,17.400
2023-04-07T05:55:59.043Z,18.200
2023-04-07T05:56:59.335Z,18.000
2023-04-07T05:57:58.479Z,18.200
2023-04-07T05:58:58.681Z,18.600
2023-04-07T05:59:58.853Z,17.300
2023-04-07T06:00:59.126Z,19.000
2023-04-07T06:02:01.749Z,19.200
2023-04-07T06:02:59.638Z,18.500
2023-04-07T06:03:59.554Z,20.200
2023-04-07T06:04:58.765Z,18.300
2023-04-07T06:05:59.488Z,18.300
2023-04-07T06:06:58.623Z,18.300
2023-04-07T06:07:58.832Z,19.000
2023-04-07T06:08:59.103Z,18.900
2023-04-07T06:09:59.348Z,17.700
2023-04-07T06:10:58.504Z,17.700
2023-04-07T06:11:58.679Z,19.100
2023-04-07T06:12:58.828Z,18.500
2023-04-07T06:13:58.989Z,18.500
2023-04-07T06:14:59.226Z,18.500
2023-04-07T06:15:58.407Z,18.100
2023-04-07T06:16:58.832Z,17.600
2023-04-07T06:17:59.419Z,17.600
2023-04-07T06:18:59.107Z,20.500
2023-04-07T06:19:59.302Z,19.100
2023-04-07T06:20:58.504Z,19.600
2023-04-07T06:21:58.643Z,19.600
2023-04-07T06:22:58.784Z,17.900
2023-04-07T06:23:58.965Z,19.200
2023-04-07T06:24:59.122Z,18.800
2023-04-07T06:25:58.265Z,19.600
2023-04-07T06:26:58.497Z,18.600
2023-04-07T06:27:58.757Z,20.100
2023-04-07T06:28:58.967Z,18.900
2023-04-07T06:29:59.152Z,18.500
2023-04-07T06:30:59.449Z,18.900
2023-04-07T06:31:59.032Z,18.000
2023-04-07T06:32:59.309Z,19.000
2023-04-07T06:33:58.491Z,19.000
2023-04-07T06:34:58.696Z,19.100
2023-04-07T06:35:58.848Z,18.800
2023-04-07T06:37:00.525Z,18.700
2023-04-07T06:37:58.767Z,18.900
2023-04-07T06:38:58.954Z,18.300
2023-04-07T06:39:59.139Z,18.800
2023-04-07T06:40:58.340Z,19.000
2023-04-07T06:41:58.591Z,19.000
2023-04-07T06:42:58.797Z,19.600
2023-04-07T06:43:59.019Z,19.800
2023-04-07T06:44:59.539Z,18.300
2023-04-07T06:45:58.788Z,18.900
2023-04-07T06:46:59.568Z,19.300
2023-04-07T06:47:58.968Z,17.100
2023-04-07T06:48:59.142Z,18.700
2023-04-07T06:49:58.332Z,20.000
2023-04-07T06:50:58.536Z,19.000
2023-04-07T06:51:58.667Z,18.700
2023-04-07T06:52:58.884Z,19.100
2023-04-07T06:53:59.078Z,18.700
2023-04-07T06:54:59.499Z,19.000
2023-04-07T06:55:58.709Z,18.500
2023-04-07T06:56:58.889Z,18.600
2023-04-07T06:57:59.053Z,18.000
2023-04-07T06:58:59.487Z,18.200
2023-04-07T06:59:59.192Z,18.200
2023-04-07T07:00:58.507Z,18.800
2023-04-07T07:01:59.038Z,19.700
2023-04-07T07:02:58.928Z,17.400
2023-04-07T07:03:59.260Z,18.400
2023-04-07T07:04:58.587Z,17.700
2023-04-07T07:05:58.742Z,17.600
2023-04-07T07:06:58.861Z,17.200
2023-04-07T07:07:59.163Z,18.200
2023-04-07T07:08:58.299Z,19.300
2023-04-07T07:09:58.735Z,17.600
2023-04-07T07:10:58.955Z,17.700
2023-04-07T07:11:59.166Z,16.500
2023-04-07T07:12:59.167Z,18.000
2023-04-07T07:13:58.303Z,18.200
2023-04-07T07:14:58.515Z,18.600
2023-04-07T07:15:58.993Z,18.200
2023-04-07T07:16:58.394Z,18.900
2023-04-07T07:17:58.883Z,17.200
2023-04-07T07:18:59.240Z,17.300
2023-04-07T07:19:58.388Z,17.500
2023-04-07T07:20:58.601Z,17.500
2023-04-07T07:21:58.822Z,18.200
2023-04-07T07:22:59.180Z,18.000
2023-04-07T07:23:58.286Z,18.100
2023-04-07T07:24:58.479Z,18.500
2023-04-07T07:25:58.648Z,17.900
2023-04-07T07:27:00.893Z,18.300
2023-04-07T07:29:58.369Z,18.400
2023-04-07T07:30:58.700Z,16.600
2023-04-07T07:31:59.042Z,17.700
2023-04-07T07:32:59.783Z,18.900
2023-04-07T07:33:59.063Z,17.300
2023-04-07T07:34:59.306Z,18.000
2023-04-07T07:35:58.535Z,18.200
2023-04-07T07:36:58.728Z,16.900
2023-04-07T07:37:59.220Z,19.100
2023-04-07T07:38:58.407Z,20.800
2023-04-07T07:39:58.618Z,19.700
2023-04-07T07:40:58.801Z,17.900
2023-04-07T07:41:58.907Z,18.800
2023-04-07T07:42:59.175Z,18.000
2023-04-07T07:43:58.286Z,17.900
2023-04-07T07:44:58.495Z,18.200
2023-04-07T07:45:58.728Z,18.600
2023-04-07T07:46:59.180Z,18.100
2023-04-07T07:47:58.538Z,18.700
2023-04-07T07:48:58.912Z,18.100
2023-04-07T07:49:59.517Z,17.300
2023-04-07T07:50:58.957Z,17.500
2023-04-07T07:51:59.392Z,17.200
2023-04-07T07:52:58.609Z,17.500
2023-04-07T07:53:58.812Z,17.900
2023-04-07T07:54:58.991Z,18.000
2023-04-07T07:55:59.264Z,17.600
2023-04-07T07:56:58.390Z,17.800
2023-04-07T07:57:58.578Z,17.800
2023-04-07T07:58:59.860Z,17.800
2023-04-07T08:00:58.611Z,17.300
2023-04-07T08:01:58.962Z,19.000
2023-04-07T08:02:59.635Z,17.400
2023-04-07T08:03:59.562Z,16.400
2023-04-07T08:04:59.191Z,17.300
2023-04-07T08:05:58.502Z,17.700
2023-04-07T08:06:58.730Z,18.200
2023-04-07T08:07:58.887Z,17.500
2023-04-07T08:08:59.085Z,18.000
2023-04-07T08:09:59.274Z,18.600
2023-04-07T08:10:58.471Z,17.400
2023-04-07T08:11:58.636Z,17.200
2023-04-07T08:12:58.987Z,18.200
2023-04-07T08:13:59.187Z,18.200
2023-04-07T08:14:58.334Z,17.900
2023-04-07T08:15:59.120Z,16.900
2023-04-07T08:16:58.457Z,17.600
2023-04-07T08:17:58.795Z,18.100
2023-04-07T08:18:59.041Z,17.700
2023-04-07T08:19:59.248Z,17.100
2023-04-07T08:20:58.373Z,17.500
2023-04-07T08:21:58.473Z,17.500
2023-04-07T08:22:58.704Z,14.700
2023-04-07T08:23:58.891Z,15.100
2023-04-07T08:24:59.101Z,16.200
2023-04-07T08:25:59.330Z,16.500
2023-04-07T08:26:58.456Z,16.200
2023-04-07T08:27:58.659Z,29.400
2023-04-07T08:28:58.886Z,23.200
2023-04-07T08:29:59.083Z,24.600
2023-04-07T08:31:58.761Z,17.800
2023-04-07T08:32:59.363Z,17.200
2023-04-07T08:33:58.681Z,16.300
2023-04-07T08:34:58.980Z,16.800
2023-04-07T08:35:59.462Z,18.400
2023-04-07T08:37:00.732Z,16.200
2023-04-07T08:39:59.271Z,15.200
2023-04-07T08:40:58.453Z,14.900
2023-04-07T08:41:58.693Z,15.400
2023-04-07T08:42:58.880Z,15.800
2023-04-07T08:43:59.056Z,15.900
2023-04-07T08:45:00.990Z,16.900
2023-04-07T08:45:58.286Z,16.100
2023-04-07T08:46:58.790Z,16.600
2023-04-07T08:47:59.335Z,17.700
2023-04-07T08:48:58.616Z,17.300
2023-04-07T08:49:58.902Z,16.800
2023-04-07T08:50:59.148Z,16.500
2023-04-07T08:51:58.360Z,17.200
2023-04-07T08:52:58.614Z,17.500
2023-04-07T08:53:58.798Z,17.400
2023-04-07T08:54:58.995Z,17.200
2023-04-07T08:55:59.285Z,17.100
2023-04-07T08:56:58.609Z,17.200
2023-04-07T08:58:00.789Z,16.400
2023-04-07T08:58:59.127Z,17.600
2023-04-07T08:59:58.310Z,17.900
2023-04-07T09:00:59.105Z,19.000
2023-04-07T09:01:58.625Z,18.500
2023-04-07T09:02:59.193Z,17.300
2023-04-07T09:03:58.809Z,18.100
2023-04-07T09:04:59.105Z,17.300
2023-04-07T09:05:59.279Z,17.900
2023-04-07T09:06:58.446Z,17.900
2023-04-07T09:07:58.668Z,18.000
2023-04-07T09:08:58.872Z,17.700
2023-04-07T09:09:59.205Z,17.200
2023-04-07T09:10:58.314Z,18.400
2023-04-07T09:11:58.451Z,17.000
2023-04-07T09:12:58.545Z,18.700
2023-04-07T09:13:58.757Z,17.300
2023-04-07T09:14:58.909Z,16.800
2023-04-07T09:15:59.100Z,16.800
2023-04-07T09:16:58.495Z,17.800
2023-04-07T09:17:58.869Z,17.100
2023-04-07T09:18:59.375Z,16.200
2023-04-07T09:19:58.556Z,17.500
2023-04-07T09:20:58.761Z,16.300
2023-04-07T09:21:58.930Z,16.500
2023-04-07T09:22:59.096Z,16.500
2023-04-07T09:23:58.249Z,17.000
2023-04-07T09:24:58.394Z,16.700
2023-04-07T09:25:58.619Z,16.700
2023-04-07T09:26:58.784Z,16.000
2023-04-07T09:27:59.074Z,16.100
2023-04-07T09:28:59.307Z,15.900
2023-04-07T09:29:58.520Z,17.600
2023-04-07T09:30:58.751Z,18.500
2023-04-07T09:31:59.164Z,18.700
2023-04-07T09:32:58.692Z,17.100
2023-04-07T09:33:59.044Z,17.500
2023-04-07T09:34:59.255Z,16.600
2023-04-07T09:35:58.635Z,16.600
2023-04-07T09:36:59.017Z,18.100
2023-04-07T09:37:59.175Z,19.100
2023-04-07T09:38:58.339Z,18.100
2023-04-07T09:39:58.535Z,17.500
2023-04-07T09:40:59.047Z,17.400
2023-04-07T09:41:58.513Z,17.400
2023-04-07T09:42:58.710Z,18.100
2023-04-07T09:43:58.939Z,17.100
2023-04-07T09:44:59.116Z,18.200
2023-04-07T09:45:58.507Z,17.000
2023-04-07T09:46:58.921Z,17.100
2023-04-07T09:47:59.385Z,16.400
2023-04-07T09:48:58.574Z,16.900
2023-04-07T09:49:58.892Z,17.500
2023-04-07T09:50:59.129Z,17.400
2023-04-07T09:51:58.343Z,17.500
2023-04-07T09:52:58.458Z,17.000
2023-04-07T09:53:58.608Z,19.400
2023-04-07T09:54:58.929Z,17.800
2023-04-07T09:55:59.210Z,17.100
2023-04-07T09:56:58.368Z,18.500
2023-04-07T09:57:58.799Z,18.400
2023-04-07T09:58:58.959Z,16.700
2023-04-07T09:59:59.088Z,18.900
2023-04-07T10:00:58.496Z,17.200
2023-04-07T10:01:59.244Z,18.500
2023-04-07T10:02:59.446Z,18.400
2023-04-07T10:04:58.614Z,18.300
2023-04-07T10:05:58.828Z,18.800
2023-04-07T10:06:58.965Z,17.300
2023-04-07T10:08:00.051Z,17.700
2023-04-07T10:08:59.191Z,18.500
2023-04-07T10:09:58.405Z,18.400
2023-04-07T10:10:58.511Z,19.000
2023-04-07T10:11:58.656Z,19.800
2023-04-07T10:12:58.857Z,18.700
2023-04-07T10:13:59.089Z,17.900
2023-04-07T10:14:59.233Z,18.300
2023-04-07T10:15:58.418Z,17.400
2023-04-07T10:16:58.911Z,18.200
2023-04-07T10:17:59.446Z,18.200
2023-04-07T10:18:58.646Z,17.900
2023-04-07T10:19:58.847Z,18.400
2023-04-07T10:20:59.097Z,18.600
2023-04-07T10:21:59.293Z,17.100
2023-04-07T10:22:58.450Z,17.600
2023-04-07T10:23:58.597Z,19.000
2023-04-07T10:24:58.884Z,19.600
2023-04-07T10:25:59.262Z,18.300
2023-04-07T10:26:58.409Z,18.400
2023-04-07T10:27:58.605Z,18.500
2023-04-07T10:28:59.003Z,18.200
2023-04-07T10:29:59.143Z,19.100
2023-04-07T10:30:58.459Z,18.300
2023-04-07T10:31:58.691Z,18.000
2023-04-07T10:32:59.137Z,19.500
2023-04-07T10:33:58.469Z,17.700
2023-04-07T10:34:58.657Z,18.500
2023-04-07T10:36:01.229Z,18.900
2023-04-07T10:36:58.481Z,17.900
2023-04-07T10:37:59.029Z,18.000
2023-04-07T10:38:59.192Z,17.700
2023-04-07T10:39:58.337Z,18.300
2023-04-07T10:40:58.612Z,17.300
2023-04-07T10:41:58.864Z,16.900
2023-04-07T10:42:59.036Z,17.800
2023-04-07T10:43:59.488Z,18.900
2023-04-07T10:44:58.552Z,17.800
2023-04-07T10:45:58.763Z,17.800
2023-04-07T10:46:59.273Z,18.900
2023-04-07T10:47:58.435Z,17.600
2023-04-07T10:48:58.836Z,17.900
2023-04-07T10:49:58.920Z,15.900
2023-04-07T10:50:59.135Z,16.700
2023-04-07T10:51:58.296Z,17.700
2023-04-07T10:52:58.512Z,18.600
2023-04-07T10:53:58.695Z,18.600
2023-04-07T10:54:58.827Z,18.300
2023-04-07T10:55:59.075Z,18.700
2023-04-07T10:56:59.235Z,18.800
2023-04-07T10:57:58.452Z,18.500
2023-04-07T10:58:58.675Z,18.400
2023-04-07T11:00:00.256Z,17.400
2023-04-07T11:00:58.632Z,18.600
2023-04-07T11:01:59.504Z,18.700
2023-04-07T11:02:59.992Z,19.300
2023-04-07T11:03:58.831Z,19.400
2023-04-07T11:04:59.492Z,20.000
2023-04-07T11:05:58.721Z,18.900
2023-04-07T11:06:58.863Z,19.300
2023-04-07T11:07:59.080Z,18.900
2023-04-07T11:08:59.237Z,19.300
2023-04-07T11:09:58.396Z,20.400
2023-04-07T11:10:58.514Z,20.100
2023-04-07T11:11:58.809Z,21.500
2023-04-07T11:12:58.960Z,19.600
2023-04-07T11:13:59.085Z,20.500
2023-04-07T11:14:59.356Z,19.900
2023-04-07T11:15:58.674Z,20.500
2023-04-07T11:16:59.168Z,19.900
2023-04-07T11:17:58.494Z,21.100
2023-04-07T11:18:58.773Z,19.400
2023-04-07T11:19:58.947Z,20.000
2023-04-07T11:21:01.871Z,19.700
2023-04-07T11:23:04.038Z,19.100
2023-04-07T11:23:59.134Z,19.600
2023-04-07T11:24:59.307Z,20.300
2023-04-07T11:25:58.403Z,18.900
2023-04-07T11:26:58.658Z,19.300
2023-04-07T11:27:58.780Z,19.400
2023-04-07T11:28:58.937Z,19.100
2023-04-07T11:29:59.133Z,19.400
2023-04-07T11:30:59.330Z,18.800
2023-04-07T11:31:58.879Z,18.700
2023-04-07T11:33:00.480Z,19.000
2023-04-07T11:33:58.709Z,18.300
2023-04-07T11:34:58.956Z,18.200
2023-04-07T11:35:59.244Z,18.300
2023-04-07T11:36:58.361Z,18.200
2023-04-07T11:37:58.545Z,17.500
2023-04-07T11:39:00.822Z,19.900
2023-04-07T11:41:58.393Z,18.300
2023-04-07T11:42:58.605Z,18.000
2023-04-07T11:43:58.912Z,18.800
2023-04-07T11:44:59.072Z,18.500
2023-04-07T11:45:59.256Z,19.100
2023-04-07T11:46:58.653Z,18.600
2023-04-07T11:47:59.181Z,17.700
2023-04-07T11:48:58.527Z,18.400
2023-04-07T11:49:58.806Z,18.200
2023-04-07T11:50:59.104Z,19.600
2023-04-07T11:51:59.322Z,18.300
2023-04-07T11:52:58.412Z,18.000
2023-04-07T11:53:58.911Z,19.700
2023-04-07T11:54:59.055Z,20.400
2023-04-07T11:55:59.237Z,18.900
2023-04-07T11:56:58.439Z,19.400
2023-04-07T11:57:58.571Z,18.800
2023-04-07T11:58:58.876Z,18.200
2023-04-07T11:59:59.134Z,19.400
2023-04-07T12:00:58.325Z,18.600
2023-04-07T12:01:59.859Z,19.100
2023-04-07T12:04:00.159Z,18.600
2023-04-07T12:04:59.985Z,18.400
2023-04-07T12:05:59.145Z,18.800
2023-04-07T12:06:58.448Z,18.700
2023-04-07T12:08:00.340Z,17.800
2023-04-07T12:09:58.705Z,18.700
2023-04-07T12:10:58.914Z,19.100
2023-04-07T12:11:59.094Z,18.700
2023-04-07T12:13:00.969Z,19.000
2023-04-07T12:13:59.168Z,18.900
2023-04-07T12:14:59.281Z,18.100
2023-04-07T12:15:58.462Z,17.400
2023-04-07T12:16:59.263Z,17.200
2023-04-07T12:17:58.541Z,17.200
2023-04-07T12:18:58.772Z,16.600
2023-04-07T12:19:59.104Z,17.200
2023-04-07T12:20:59.273Z,18.200
2023-04-07T12:21:58.499Z,18.900
2023-04-07T12:22:58.715Z,19.700
2023-04-07T12:23:58.986Z,18.800
2023-04-07T12:24:59.307Z,20.400
2023-04-07T12:25:58.432Z,18.800
2023-04-07T12:26:58.611Z,18.600
2023-04-07T12:28:03.776Z,17.800
2023-04-07T12:28:58.954Z,17.900
2023-04-07T12:29:59.088Z,18.200
2023-04-07T12:30:59.296Z,18.000
2023-04-07T12:31:58.568Z,18.300
2023-04-07T12:32:59.147Z,19.700
2023-04-07T12:33:58.490Z,17.900
2023-04-07T12:34:58.636Z,17.600
2023-04-07T12:35:59.079Z,18.600
2023-04-07T12:36:58.293Z,19.800
2023-04-07T12:37:58.517Z,18.500
2023-04-07T12:38:58.725Z,19.500
2023-04-07T12:39:58.907Z,19.200
2023-04-07T12:40:58.275Z,18.600
2023-04-07T12:41:58.432Z,18.000
2023-04-07T12:42:58.564Z,18.400
2023-04-07T12:44:00.678Z,17.300
2023-04-07T12:45:59.102Z,17.400
2023-04-07T12:46:58.337Z,18.300
2023-04-07T12:47:58.689Z,18.800
2023-04-07T12:48:59.340Z,18.100
2023-04-07T12:49:58.443Z,17.100
2023-04-07T12:50:58.599Z,17.600
2023-04-07T12:51:58.817Z,17.300
2023-04-07T12:52:59.055Z,18.700
2023-04-07T12:53:59.256Z,17.500
2023-04-07T12:54:58.355Z,19.000
2023-04-07T12:55:58.493Z,17.900
2023-04-07T12:56:58.812Z,19.300
2023-04-07T12:57:59.040Z,20.400
2023-04-07T12:58:58.315Z,18.800